createdAt,value
2023-01-13T00:01:30.041Z,98650.60
2023-01-13T00:03:57.838Z,98641.00
2023-01-13T00:06:26.256Z,98646.80
2023-01-13T00:08:54.945Z,98648.20
2023-01-13T00:11:23.387Z,98646.40
2023-01-13T00:13:51.089Z,98646.00
2023-01-13T00:16:20.862Z,98646.80
2023-01-13T00:18:51.142Z,98653.60
2023-01-13T00:21:24.527Z,98654.00
2023-01-13T00:23:54.691Z,98655.80
2023-01-13T00:26:33.777Z,98653.00
2023-01-13T00:29:01.861Z,98653.00
2023-01-13T00:31:29.946Z,98653.20
2023-01-13T00:33:59.917Z,98653.40
2023-01-13T00:36:28.835Z,98641.20
2023-01-13T00:38:57.005Z,98647.00
2023-01-13T00:41:26.634Z,98645.00
2023-01-13T00:43:54.854Z,98641.60
2023-01-13T00:46:22.941Z,98641.40
2023-01-13T00:48:51.602Z,98638.40
2023-01-13T00:51:21.686Z,98642.80
2023-01-13T00:53:51.899Z,98644.20
2023-01-13T00:56:39.308Z,98640.80
2023-01-13T00:59:12.844Z,98631.60
2023-01-13T01:01:41.599Z,98630.60
2023-01-13T01:04:09.640Z,98623.60
2023-01-13T01:06:38.081Z,98622.00
2023-01-13T01:09:06.201Z,98623.60
2023-01-13T01:11:34.791Z,98623.60
2023-01-13T01:14:03.962Z,98624.00
2023-01-13T01:16:33.863Z,98618.20
2023-01-13T01:19:02.067Z,98626.60
2023-01-13T01:21:29.883Z,98614.00
2023-01-13T01:24:01.458Z,98611.60
2023-01-13T01:26:30.824Z,98603.00
2023-01-13T01:28:59.880Z,98599.00
2023-01-13T01:31:32.383Z,98604.00
2023-01-13T01:34:01.461Z,98598.00
2023-01-13T01:36:30.297Z,98598.60
2023-01-13T01:39:00.021Z,98590.80
2023-01-13T01:41:31.973Z,98591.00
2023-01-13T01:44:08.422Z,98593.40
2023-01-13T01:46:42.963Z,98583.80
2023-01-13T01:49:41.374Z,98586.00
2023-01-13T01:52:20.408Z,98584.80
2023-01-13T01:54:54.873Z,98578.00
2023-01-13T01:57:29.202Z,98574.40
2023-01-13T02:00:00.984Z,98581.00
2023-01-13T02:02:30.902Z,98572.00
2023-01-13T02:04:59.811Z,98574.40
2023-01-13T02:07:31.781Z,98564.20
2023-01-13T02:10:06.359Z,98561.00
2023-01-13T02:12:35.824Z,98556.80
2023-01-13T02:15:11.208Z,98554.80
2023-01-13T02:18:27.297Z,98553.40
2023-01-13T02:21:49.264Z,98553.20
2023-01-13T02:24:54.042Z,98547.60
2023-01-13T02:27:43.710Z,98549.80
2023-01-13T02:30:49.136Z,98550.20
2023-01-13T02:33:42.212Z,98536.00
2023-01-13T02:36:28.417Z,98530.60
2023-01-13T02:39:04.790Z,98525.60
2023-01-13T02:42:15.992Z,98522.40
2023-01-13T02:45:09.452Z,98518.00
2023-01-13T02:47:41.336Z,98521.20
2023-01-13T02:50:17.516Z,98521.60
2023-01-13T02:53:11.927Z,98511.60
2023-01-13T02:55:46.893Z,98503.40
2023-01-13T02:58:24.187Z,98500.60
2023-01-13T03:00:52.203Z,98505.00
2023-01-13T03:03:20.156Z,98504.20
2023-01-13T03:05:53.823Z,98500.40
2023-01-13T03:08:39.455Z,98508.80
2023-01-13T03:11:13.973Z,98506.00
2023-01-13T03:14:21.295Z,98495.00
2023-01-13T03:17:03.427Z,98495.80
2023-01-13T03:19:46.628Z,98491.80
2023-01-13T03:22:31.842Z,98488.60
2023-01-13T03:25:13.832Z,98488.00
2023-01-13T03:27:50.077Z,98488.80
2023-01-13T03:30:28.942Z,98487.00
2023-01-13T03:33:06.156Z,98487.40
2023-01-13T03:35:45.929Z,98482.80
2023-01-13T03:38:28.099Z,98480.40
2023-01-13T03:41:09.224Z,98490.20
2023-01-13T03:44:07.265Z,98489.20
2023-01-13T03:47:08.565Z,98492.60
2023-01-13T03:49:49.675Z,98491.20
2023-01-13T03:52:32.916Z,98489.40
2023-01-13T03:55:09.521Z,98491.80
2023-01-13T03:57:50.144Z,98488.80
2023-01-13T04:00:23.153Z,98490.20
2023-01-13T04:03:02.851Z,98488.60
2023-01-13T04:05:35.052Z,98491.60
2023-01-13T04:08:16.873Z,98494.80
2023-01-13T04:11:07.413Z,98487.00
2023-01-13T04:13:40.293Z,98488.80
2023-01-13T04:16:11.144Z,98485.00
2023-01-13T04:18:40.156Z,98474.00
2023-01-13T04:21:09.384Z,98472.20
2023-01-13T04:23:37.118Z,98462.40
2023-01-13T04:26:05.004Z,98457.80
2023-01-13T04:28:35.013Z,98462.20
2023-01-13T04:31:02.842Z,98461.60
2023-01-13T04:33:30.579Z,98468.40
2023-01-13T04:35:58.247Z,98469.40
2023-01-13T04:38:26.042Z,98476.40
2023-01-13T04:40:53.805Z,98470.00
2023-01-13T04:43:21.646Z,98469.40
2023-01-13T04:45:49.339Z,98471.00
2023-01-13T04:48:17.271Z,98463.60
2023-01-13T04:50:44.920Z,98462.20
2023-01-13T04:53:12.698Z,98471.40
2023-01-13T04:55:40.656Z,98474.20
2023-01-13T04:58:10.702Z,98472.20
2023-01-13T05:00:38.500Z,98478.60
2023-01-13T05:03:06.467Z,98483.80
2023-01-13T05:05:34.542Z,98483.80
2023-01-13T05:08:02.237Z,98485.80
2023-01-13T05:10:30.517Z,98488.20
2023-01-13T05:13:17.139Z,98481.60
2023-01-13T05:16:06.337Z,98491.20
2023-01-13T05:18:34.419Z,98489.20
2023-01-13T05:21:02.239Z,98491.60
2023-01-13T05:23:48.744Z,98492.40
2023-01-13T05:26:16.432Z,98483.40
2023-01-13T05:28:44.345Z,98487.40
2023-01-13T05:31:14.927Z,98484.60
2023-01-13T05:33:42.662Z,98486.80
2023-01-13T05:36:10.344Z,98484.20
2023-01-13T05:38:38.040Z,98490.20
2023-01-13T05:41:24.714Z,98486.60
2023-01-13T05:43:52.375Z,98491.20
2023-01-13T05:46:20.107Z,98488.80
2023-01-13T05:48:48.151Z,98483.40
2023-01-13T05:51:15.982Z,98486.80
2023-01-13T05:53:43.720Z,98486.20
2023-01-13T05:56:11.868Z,98483.20
2023-01-13T05:58:39.879Z,98483.20
2023-01-13T06:01:09.897Z,98478.60
2023-01-13T06:03:38.045Z,98483.60
2023-01-13T06:06:09.002Z,98483.60
2023-01-13T06:08:39.431Z,98492.40
2023-01-13T06:11:08.634Z,98495.60
2023-01-13T06:13:36.416Z,98491.40
2023-01-13T06:16:04.592Z,98496.60
2023-01-13T06:18:32.306Z,98498.20
2023-01-13T06:21:01.128Z,98492.60
2023-01-13T06:23:29.373Z,98488.00
2023-01-13T06:26:20.065Z,98489.60
2023-01-13T06:28:47.806Z,98484.20
2023-01-13T06:31:16.325Z,98494.20
2023-01-13T06:33:51.351Z,98486.80
2023-01-13T06:36:40.162Z,98482.40
2023-01-13T06:39:11.791Z,98481.60
2023-01-13T06:41:58.508Z,98480.60
2023-01-13T06:44:26.248Z,98483.80
2023-01-13T06:46:54.147Z,98487.40
2023-01-13T06:49:23.104Z,98490.60
2023-01-13T06:51:50.811Z,98486.20
2023-01-13T06:54:18.591Z,98487.60
2023-01-13T06:56:46.451Z,98481.80
2023-01-13T06:59:14.080Z,98490.00
2023-01-13T07:01:42.110Z,98497.20
2023-01-13T07:04:10.084Z,98495.40
2023-01-13T07:06:38.038Z,98502.20
2023-01-13T07:09:06.903Z,98506.00
2023-01-13T07:11:34.766Z,98503.80
2023-01-13T07:14:21.189Z,98498.60
2023-01-13T07:16:49.009Z,98499.40
2023-01-13T07:19:23.207Z,98501.00
2023-01-13T07:21:52.381Z,98510.60
2023-01-13T07:24:21.002Z,98509.80
2023-01-13T07:26:48.728Z,98506.00
2023-01-13T07:29:16.551Z,98509.80
2023-01-13T07:31:44.408Z,98507.00
2023-01-13T07:34:13.176Z,98503.60
2023-01-13T07:36:40.855Z,98501.00
2023-01-13T07:39:08.603Z,98499.20
2023-01-13T07:41:56.550Z,98501.20
2023-01-13T07:44:24.310Z,98497.00
2023-01-13T07:46:52.063Z,98490.60
2023-01-13T07:49:19.879Z,98495.60
2023-01-13T07:51:47.712Z,98493.80
2023-01-13T07:54:15.502Z,98502.00
2023-01-13T07:56:43.301Z,98496.20
2023-01-13T07:59:11.075Z,98504.00
2023-01-13T08:01:39.120Z,98493.80
2023-01-13T08:04:06.999Z,98495.20
2023-01-13T08:06:36.559Z,98495.20
2023-01-13T08:09:04.259Z,98489.80
2023-01-13T08:11:32.037Z,98492.60
2023-01-13T08:13:59.855Z,98496.80
2023-01-13T08:16:27.614Z,98499.60
2023-01-13T08:18:55.313Z,98505.80
2023-01-13T08:21:23.071Z,98504.40
2023-01-13T08:23:50.955Z,98507.60
2023-01-13T08:26:19.135Z,98504.80
2023-01-13T08:28:46.885Z,98504.00
2023-01-13T08:31:17.140Z,98505.40
2023-01-13T08:33:45.040Z,98505.40
2023-01-13T08:36:13.918Z,98507.80
2023-01-13T08:38:41.931Z,98511.00
2023-01-13T08:41:36.981Z,98514.20
2023-01-13T08:44:05.522Z,98520.20
2023-01-13T08:46:33.296Z,98515.00
2023-01-13T08:49:01.325Z,98513.40
2023-01-13T08:51:29.145Z,98512.00
2023-01-13T08:53:56.952Z,98518.20
2023-01-13T08:56:24.680Z,98513.60
2023-01-13T08:58:52.351Z,98513.60
2023-01-13T09:01:23.403Z,98508.80
2023-01-13T09:03:51.830Z,98513.80
2023-01-13T09:06:19.807Z,98516.20
2023-01-13T09:08:47.765Z,98507.80
2023-01-13T09:11:40.192Z,98512.20
2023-01-13T09:14:07.893Z,98511.80
2023-01-13T09:16:35.646Z,98513.00
2023-01-13T09:19:03.363Z,98503.40
2023-01-13T09:21:31.056Z,98502.60
2023-01-13T09:23:58.745Z,98504.40
2023-01-13T09:26:26.641Z,98504.20
2023-01-13T09:28:54.754Z,98497.60
2023-01-13T09:31:22.673Z,98496.40
2023-01-13T09:34:09.146Z,98493.40
2023-01-13T09:36:36.836Z,98499.80
2023-01-13T09:39:05.780Z,98486.80
2023-01-13T09:42:08.338Z,98487.80
2023-01-13T09:44:55.586Z,98483.80
2023-01-13T09:47:33.828Z,98493.00
2023-01-13T09:50:13.828Z,98490.80
2023-01-13T09:52:44.720Z,98479.20
2023-01-13T09:55:24.672Z,98481.40
2023-01-13T09:57:52.803Z,98479.80
2023-01-13T10:00:47.136Z,98480.80
2023-01-13T10:03:24.007Z,98477.40
2023-01-13T10:06:28.736Z,98476.20
2023-01-13T10:08:57.842Z,98477.40
2023-01-13T10:11:58.051Z,98466.00
2023-01-13T10:14:50.559Z,98470.80
2023-01-13T10:17:44.728Z,98461.00
2023-01-13T10:20:24.920Z,98458.00
2023-01-13T10:23:39.017Z,98464.60
2023-01-13T10:26:25.374Z,98458.20
2023-01-13T10:28:58.100Z,98453.00
2023-01-13T10:31:26.975Z,98455.80
2023-01-13T10:34:06.917Z,98446.20
2023-01-13T10:36:34.664Z,98445.20
2023-01-13T10:39:16.135Z,98445.40
2023-01-13T10:41:44.824Z,98448.00
2023-01-13T10:44:19.277Z,98437.60
2023-01-13T10:46:59.598Z,98440.20
2023-01-13T10:49:38.788Z,98432.60
2023-01-13T10:52:27.986Z,98439.40
2023-01-13T10:54:56.467Z,98431.20
2023-01-13T10:57:27.548Z,98429.80
2023-01-13T10:59:56.340Z,98428.00
2023-01-13T11:02:36.096Z,98425.40
2023-01-13T11:05:24.703Z,98431.00
2023-01-13T11:07:55.045Z,98431.80
2023-01-13T11:10:31.215Z,98426.40
2023-01-13T11:13:28.325Z,98417.60
2023-01-13T11:16:10.421Z,98416.40
2023-01-13T11:18:51.827Z,98410.60
2023-01-13T11:21:33.736Z,98416.60
2023-01-13T11:24:21.074Z,98418.60
2023-01-13T11:27:01.529Z,98407.20
2023-01-13T11:29:40.003Z,98409.00
2023-01-13T11:32:39.613Z,98412.60
2023-01-13T11:35:19.615Z,98404.40
2023-01-13T11:37:59.277Z,98399.60
2023-01-13T11:40:49.846Z,98400.80
2023-01-13T11:44:02.703Z,98403.80
2023-01-13T11:46:32.553Z,98404.20
2023-01-13T11:49:01.209Z,98409.40
2023-01-13T11:51:53.030Z,98401.40
2023-01-13T11:54:55.453Z,98411.40
2023-01-13T11:57:41.330Z,98407.60
2023-01-13T12:00:40.715Z,98408.60
2023-01-13T12:04:04.488Z,98398.80
2023-01-13T12:06:40.205Z,98404.60
2023-01-13T12:09:31.448Z,98397.40
2023-01-13T12:12:33.258Z,98396.80
2023-01-13T12:15:16.535Z,98402.00
2023-01-13T12:18:24.735Z,98387.80
2023-01-13T12:21:28.627Z,98390.20
2023-01-13T12:24:27.401Z,98392.60
2023-01-13T12:27:09.774Z,98384.00
2023-01-13T12:29:39.836Z,98389.20
2023-01-13T12:32:16.738Z,98385.40
2023-01-13T12:35:14.795Z,98384.00
2023-01-13T12:38:00.110Z,98389.80
2023-01-13T12:41:09.361Z,98391.40
2023-01-13T12:44:04.174Z,98385.80
2023-01-13T12:46:31.808Z,98391.40
2023-01-13T12:49:02.387Z,98390.20
2023-01-13T12:51:52.676Z,98391.40
2023-01-13T12:54:39.453Z,98391.20
2023-01-13T12:57:21.881Z,98391.00
2023-01-13T13:00:04.981Z,98384.60
2023-01-13T13:02:41.684Z,98390.80
2023-01-13T13:05:43.813Z,98398.20
2023-01-13T13:08:18.687Z,98397.60
2023-01-13T13:11:34.825Z,98403.00
2023-01-13T13:14:12.312Z,98404.80
2023-01-13T13:16:50.752Z,98406.20
2023-01-13T13:19:18.613Z,98405.00
2023-01-13T13:22:16.729Z,98412.00
2023-01-13T13:25:04.446Z,98407.80
2023-01-13T13:27:32.131Z,98417.80
2023-01-13T13:30:34.766Z,98414.80
2023-01-13T13:33:17.688Z,98417.00
2023-01-13T13:36:31.388Z,98420.60
2023-01-13T13:39:48.017Z,98419.80
2023-01-13T13:42:48.631Z,98418.80
2023-01-13T13:45:43.165Z,98421.80
2023-01-13T13:48:25.350Z,98426.80
2023-01-13T13:51:25.045Z,98428.60
2023-01-13T13:53:54.760Z,98420.80
2023-01-13T13:56:27.841Z,98423.80
2023-01-13T13:58:56.020Z,98423.40
2023-01-13T14:01:38.137Z,98418.60
2023-01-13T14:04:26.055Z,98422.20
2023-01-13T14:07:22.687Z,98430.80
2023-01-13T14:09:56.725Z,98423.60
2023-01-13T14:12:27.542Z,98425.00
2023-01-13T14:14:57.481Z,98434.60
2023-01-13T14:17:31.042Z,98436.00
2023-01-13T14:20:05.406Z,98441.40
2023-01-13T14:22:34.025Z,98439.40
2023-01-13T14:25:02.047Z,98441.80
2023-01-13T14:27:31.147Z,98440.20
2023-01-13T14:30:01.364Z,98445.20
2023-01-13T14:32:36.799Z,98435.20
2023-01-13T14:35:08.808Z,98441.80
2023-01-13T14:37:40.739Z,98434.60
2023-01-13T14:40:33.573Z,98443.80
2023-01-13T14:43:08.361Z,98448.40
2023-01-13T14:45:36.357Z,98446.20
2023-01-13T14:48:09.261Z,98448.80
2023-01-13T14:50:37.133Z,98454.60
2023-01-13T14:53:29.685Z,98454.60
2023-01-13T14:55:58.694Z,98454.80
2023-01-13T14:58:28.641Z,98447.80
2023-01-13T15:01:36.152Z,98452.80
2023-01-13T15:04:31.433Z,98462.80
2023-01-13T15:07:01.308Z,98460.00
2023-01-13T15:09:41.573Z,98465.80
2023-01-13T15:12:40.680Z,98466.40
2023-01-13T15:15:32.759Z,98469.20
2023-01-13T15:18:17.060Z,98470.20
2023-01-13T15:20:45.178Z,98479.20
2023-01-13T15:23:13.197Z,98477.40
2023-01-13T15:25:43.733Z,98483.20
2023-01-13T15:28:32.270Z,98479.60
2023-01-13T15:31:01.746Z,98476.60
2023-01-13T15:33:29.585Z,98477.20
2023-01-13T15:35:58.668Z,98476.80
2023-01-13T15:38:26.375Z,98474.00
2023-01-13T15:40:54.116Z,98483.00
2023-01-13T15:43:42.624Z,98476.00
2023-01-13T15:46:39.026Z,98481.80
2023-01-13T15:49:27.865Z,98484.80
2023-01-13T15:51:55.659Z,98479.20
2023-01-13T15:54:24.643Z,98478.40
2023-01-13T15:56:53.953Z,98481.00
2023-01-13T15:59:26.993Z,98480.20
2023-01-13T16:01:54.710Z,98481.80
2023-01-13T16:04:22.511Z,98483.60
2023-01-13T16:06:51.041Z,98480.00
2023-01-13T16:09:18.980Z,98487.80
2023-01-13T16:11:46.756Z,98487.60
2023-01-13T16:14:14.515Z,98488.20
2023-01-13T16:16:42.278Z,98486.40
2023-01-13T16:19:12.074Z,98496.00
2023-01-13T16:21:40.514Z,98496.80
2023-01-13T16:24:08.326Z,98498.40
2023-01-13T16:26:37.590Z,98494.20
2023-01-13T16:29:07.251Z,98493.80
2023-01-13T16:31:35.257Z,98507.00
2023-01-13T16:34:04.697Z,98507.20
2023-01-13T16:36:36.798Z,98504.20
2023-01-13T16:39:06.882Z,98507.80
2023-01-13T16:41:34.728Z,98511.00
2023-01-13T16:44:06.160Z,98504.20
2023-01-13T16:46:34.181Z,98506.80
2023-01-13T16:49:05.885Z,98506.60
2023-01-13T16:51:33.727Z,98507.60
2023-01-13T16:54:01.490Z,98509.80
2023-01-13T16:56:35.813Z,98511.60
2023-01-13T16:59:14.340Z,98517.60
2023-01-13T17:01:44.965Z,98518.00
2023-01-13T17:04:22.202Z,98515.60
2023-01-13T17:07:00.891Z,98518.00
2023-01-13T17:09:30.198Z,98518.80
2023-01-13T17:11:58.584Z,98517.80
2023-01-13T17:14:26.493Z,98515.20
2023-01-13T17:16:57.174Z,98518.80
2023-01-13T17:19:26.042Z,98523.40
2023-01-13T17:21:53.916Z,98522.20
2023-01-13T17:24:21.749Z,98517.20
2023-01-13T17:26:51.372Z,98530.20
2023-01-13T17:29:23.170Z,98530.60
2023-01-13T17:31:51.736Z,98527.40
2023-01-13T17:34:21.461Z,98531.80
2023-01-13T17:36:49.299Z,98534.40
2023-01-13T17:39:24.591Z,98535.40
2023-01-13T17:41:55.838Z,98550.20
2023-01-13T17:44:23.814Z,98552.40
2023-01-13T17:46:51.602Z,98571.80
2023-01-13T17:49:21.782Z,98564.60
2023-01-13T17:51:51.940Z,98567.00
2023-01-13T17:54:21.061Z,98568.40
2023-01-13T17:56:49.385Z,98571.00
2023-01-13T17:59:19.761Z,98577.00
2023-01-13T18:01:47.655Z,98575.60
2023-01-13T18:04:22.077Z,98580.00
2023-01-13T18:06:50.640Z,98569.60
2023-01-13T18:09:18.415Z,98565.20
2023-01-13T18:11:47.379Z,98559.40
2023-01-13T18:14:16.393Z,98555.60
2023-01-13T18:16:44.957Z,98561.40
2023-01-13T18:19:31.700Z,98559.40
2023-01-13T18:22:18.110Z,98558.80
2023-01-13T18:25:04.880Z,98562.00
2023-01-13T18:27:38.101Z,98567.40
2023-01-13T18:30:07.064Z,98574.60
2023-01-13T18:32:35.277Z,98576.60
2023-01-13T18:35:10.267Z,98583.40
2023-01-13T18:37:41.902Z,98579.80
2023-01-13T18:40:13.886Z,98589.20
2023-01-13T18:42:54.932Z,98592.00
2023-01-13T18:45:30.043Z,98588.40
2023-01-13T18:48:01.645Z,98586.40
2023-01-13T18:50:30.499Z,98590.60
2023-01-13T18:52:58.709Z,98600.00
2023-01-13T18:55:30.475Z,98611.00
2023-01-13T18:57:59.027Z,98609.40
2023-01-13T19:00:27.576Z,98610.00
2023-01-13T19:05:36.107Z,98622.60
2023-01-13T19:08:05.384Z,98623.60
2023-01-13T19:10:33.282Z,98625.00
2023-01-13T19:13:01.796Z,98620.00
2023-01-13T19:15:30.433Z,98617.80
2023-01-13T19:17:58.701Z,98626.20
2023-01-13T19:20:26.659Z,98623.80
2023-01-13T19:22:54.976Z,98626.00
2023-01-13T19:25:22.928Z,98629.40
2023-01-13T19:27:50.767Z,98628.80
2023-01-13T19:30:18.937Z,98633.80
2023-01-13T19:32:46.677Z,98632.60
2023-01-13T19:35:17.678Z,98638.60
2023-01-13T19:37:45.931Z,98635.80
2023-01-13T19:40:14.175Z,98632.80
2023-01-13T19:43:03.935Z,98639.40
2023-01-13T19:45:35.003Z,98634.40
2023-01-13T19:48:05.155Z,98642.20
2023-01-13T19:50:38.719Z,98636.00
2023-01-13T19:53:08.045Z,98642.00
2023-01-13T19:55:35.732Z,98655.00
2023-01-13T19:58:03.984Z,98651.80
2023-01-13T20:00:31.914Z,98663.80
2023-01-13T20:03:03.424Z,98655.20
2023-01-13T20:05:31.496Z,98666.80
2023-01-13T20:07:59.301Z,98666.40
2023-01-13T20:10:30.183Z,98675.40
2023-01-13T20:13:01.026Z,98677.20
2023-01-13T20:15:28.758Z,98672.00
2023-01-13T20:17:58.037Z,98674.60
2023-01-13T20:20:28.022Z,98679.20
2023-01-13T20:22:59.419Z,98683.00
2023-01-13T20:25:28.879Z,98687.40
2023-01-13T20:27:57.216Z,98696.60
2023-01-13T20:30:25.122Z,98701.80
2023-01-13T20:32:52.925Z,98698.20
2023-01-13T20:35:20.702Z,98703.20
2023-01-13T20:37:48.509Z,98708.20
2023-01-13T20:40:18.400Z,98710.20
2023-01-13T20:42:46.496Z,98717.40
2023-01-13T20:45:19.765Z,98720.60
2023-01-13T20:47:47.764Z,98721.20
2023-01-13T20:50:17.049Z,98724.00
2023-01-13T20:52:45.858Z,98734.40
2023-01-13T20:55:14.598Z,98733.80
2023-01-13T20:57:48.426Z,98740.00
2023-01-13T21:00:16.927Z,98742.20
2023-01-13T21:02:44.721Z,98750.00
2023-01-13T21:05:15.992Z,98750.40
2023-01-13T21:07:43.919Z,98752.00
2023-01-13T21:10:11.789Z,98755.40
2023-01-13T21:12:58.648Z,98755.60
2023-01-13T21:15:27.421Z,98754.00
2023-01-13T21:18:13.925Z,98751.40
2023-01-13T21:20:41.770Z,98754.40
2023-01-13T21:23:10.970Z,98758.00
2023-01-13T21:25:40.121Z,98756.20
2023-01-13T21:28:10.268Z,98760.00
2023-01-13T21:30:39.145Z,98762.00
2023-01-13T21:33:06.971Z,98775.40
2023-01-13T21:35:38.897Z,98779.40
2023-01-13T21:38:07.015Z,98777.80
2023-01-13T21:40:34.761Z,98783.80
2023-01-13T21:43:20.895Z,98790.60
2023-01-13T21:46:07.274Z,98784.00
2023-01-13T21:48:35.103Z,98785.00
2023-01-13T21:51:02.845Z,98791.60
2023-01-13T21:53:30.528Z,98793.20
2023-01-13T21:55:58.304Z,98793.40
2023-01-13T21:58:26.340Z,98798.40
2023-01-13T22:00:54.376Z,98799.80
2023-01-13T22:03:22.301Z,98800.60
2023-01-13T22:05:55.733Z,98809.40
2023-01-13T22:08:23.609Z,98802.60
2023-01-13T22:10:57.268Z,98807.60
2023-01-13T22:13:46.237Z,98806.80
2023-01-13T22:16:16.027Z,98802.80
2023-01-13T22:18:43.853Z,98801.80
2023-01-13T22:21:11.820Z,98800.20
2023-01-13T22:23:39.582Z,98798.40
2023-01-13T22:26:08.509Z,98798.60
2023-01-13T22:28:43.374Z,98800.20
2023-01-13T22:31:14.888Z,98802.60
2023-01-13T22:33:46.984Z,98805.40
2023-01-13T22:36:16.380Z,98803.20
2023-01-13T22:38:44.579Z,98808.80
2023-01-13T22:41:12.915Z,98810.80
2023-01-13T22:43:40.676Z,98802.40
2023-01-13T22:46:13.285Z,98813.20
2023-01-13T22:48:41.340Z,98807.60
2023-01-13T22:51:11.795Z,98807.00
2023-01-13T22:53:41.424Z,98798.20
2023-01-13T22:56:25.606Z,98800.00
2023-01-13T22:59:00.673Z,98805.20
2023-01-13T23:01:32.556Z,98809.20
2023-01-13T23:04:02.675Z,98809.60
2023-01-13T23:06:33.347Z,98809.00
2023-01-13T23:09:01.591Z,98815.20
2023-01-13T23:11:30.562Z,98811.60
2023-01-13T23:14:04.732Z,98816.40
2023-01-13T23:16:38.608Z,98822.20
2023-01-13T23:19:08.481Z,98819.80
2023-01-13T23:21:38.347Z,98827.60
2023-01-13T23:24:07.367Z,98832.20
2023-01-13T23:26:36.188Z,98834.20
2023-01-13T23:29:08.141Z,98844.60
2023-01-13T23:31:36.140Z,98847.60
2023-01-13T23:34:03.969Z,98847.20
2023-01-13T23:36:31.647Z,98849.80
2023-01-13T23:38:59.837Z,98849.80
2023-01-13T23:41:28.546Z,98853.80
2023-01-13T23:44:00.794Z,98850.00
2023-01-13T23:46:32.633Z,98849.20
2023-01-13T23:49:03.241Z,98854.40
2023-01-13T23:51:31.705Z,98846.60
2023-01-13T23:53:59.865Z,98851.80
2023-01-13T23:56:31.134Z,98853.60
2023-01-13T23:58:59.086Z,98855.80
